sensor_id;sensor_type;location;lat;lon;timestamp;P1;durP1;ratioP1;P2;durP2;ratioP2
10114;SDS011;5097;43.260;27.812;2023-06-10T00:00:37;2.92;;;2.72;;
10114;SDS011;5097;43.260;27.812;2023-06-10T00:03:24;3.40;;;2.55;;
10114;SDS011;5097;43.260;27.812;2023-06-10T00:06:09;5.75;;;2.83;;
10114;SDS011;5097;43.260;27.812;2023-06-10T00:08:52;3.88;;;2.95;;
10114;SDS011;5097;43.260;27.812;2023-06-10T00:11:37;4.22;;;2.42;;
10114;SDS011;5097;43.260;27.812;2023-06-10T00:14:21;3.03;;;2.53;;
10114;SDS011;5097;43.260;27.812;2023-06-10T00:17:05;3.40;;;2.83;;
10114;SDS011;5097;43.260;27.812;2023-06-10T00:19:53;3.00;;;2.63;;
10114;SDS011;5097;43.260;27.812;2023-06-10T00:22:37;2.63;;;2.42;;
10114;SDS011;5097;43.260;27.812;2023-06-10T00:25:21;4.53;;;3.53;;
10114;SDS011;5097;43.260;27.812;2023-06-10T00:28:05;2.65;;;2.45;;
10114;SDS011;5097;43.260;27.812;2023-06-10T00:30:49;5.90;;;2.60;;
10114;SDS011;5097;43.260;27.812;2023-06-10T00:33:33;2.88;;;2.53;;
10114;SDS011;5097;43.260;27.812;2023-06-10T00:36:19;2.63;;;2.42;;
10114;SDS011;5097;43.260;27.812;2023-06-10T00:39:04;3.78;;;2.33;;
10114;SDS011;5097;43.260;27.812;2023-06-10T00:41:47;2.90;;;2.28;;
10114;SDS011;5097;43.260;27.812;2023-06-10T00:44:31;2.95;;;2.30;;
10114;SDS011;5097;43.260;27.812;2023-06-10T00:47:16;2.55;;;2.25;;
10114;SDS011;5097;43.260;27.812;2023-06-10T00:49:59;5.60;;;2.50;;
10114;SDS011;5097;43.260;27.812;2023-06-10T00:52:47;3.22;;;2.83;;
10114;SDS011;5097;43.260;27.812;2023-06-10T00:55:35;4.53;;;2.95;;
10114;SDS011;5097;43.260;27.812;2023-06-10T00:58:20;4.30;;;2.58;;
10114;SDS011;5097;43.260;27.812;2023-06-10T01:01:04;6.10;;;2.90;;
10114;SDS011;5097;43.260;27.812;2023-06-10T01:03:48;2.55;;;2.35;;
10114;SDS011;5097;43.260;27.812;2023-06-10T01:06:34;5.30;;;2.50;;
10114;SDS011;5097;43.260;27.812;2023-06-10T01:09:32;4.22;;;2.67;;
10114;SDS011;5097;43.260;27.812;2023-06-10T01:12:24;5.32;;;2.50;;
10114;SDS011;5097;43.260;27.812;2023-06-10T01:15:14;7.50;;;2.72;;
10114;SDS011;5097;43.260;27.812;2023-06-10T01:18:01;3.67;;;2.47;;
10114;SDS011;5097;43.260;27.812;2023-06-10T01:20:46;3.58;;;2.53;;
10114;SDS011;5097;43.260;27.812;2023-06-10T01:23:34;5.20;;;3.20;;
10114;SDS011;5097;43.260;27.812;2023-06-10T01:26:18;4.30;;;2.67;;
10114;SDS011;5097;43.260;27.812;2023-06-10T01:29:10;2.33;;;2.20;;
10114;SDS011;5097;43.260;27.812;2023-06-10T01:32:01;4.13;;;2.53;;
10114;SDS011;5097;43.260;27.812;2023-06-10T01:34:49;3.78;;;2.40;;
10114;SDS011;5097;43.260;27.812;2023-06-10T01:37:33;3.60;;;2.65;;
10114;SDS011;5097;43.260;27.812;2023-06-10T01:40:19;4.90;;;2.38;;
10114;SDS011;5097;43.260;27.812;2023-06-10T01:43:05;7.55;;;2.60;;
10114;SDS011;5097;43.260;27.812;2023-06-10T01:45:49;4.25;;;3.25;;
10114;SDS011;5097;43.260;27.812;2023-06-10T01:48:33;5.30;;;2.72;;
10114;SDS011;5097;43.260;27.812;2023-06-10T01:51:17;4.15;;;2.67;;
10114;SDS011;5097;43.260;27.812;2023-06-10T01:54:01;5.95;;;3.28;;
10114;SDS011;5097;43.260;27.812;2023-06-10T01:56:47;8.32;;;2.90;;
10114;SDS011;5097;43.260;27.812;2023-06-10T01:59:31;4.78;;;2.17;;
10114;SDS011;5097;43.260;27.812;2023-06-10T02:02:15;4.22;;;2.50;;
10114;SDS011;5097;43.260;27.812;2023-06-10T02:04:59;4.45;;;2.72;;
10114;SDS011;5097;43.260;27.812;2023-06-10T02:07:44;3.58;;;3.10;;
10114;SDS011;5097;43.260;27.812;2023-06-10T02:10:28;3.05;;;2.75;;
10114;SDS011;5097;43.260;27.812;2023-06-10T02:13:14;6.00;;;3.42;;
10114;SDS011;5097;43.260;27.812;2023-06-10T02:15:58;5.97;;;3.92;;
10114;SDS011;5097;43.260;27.812;2023-06-10T02:18:44;3.97;;;3.53;;
10114;SDS011;5097;43.260;27.812;2023-06-10T02:21:28;5.40;;;2.97;;
10114;SDS011;5097;43.260;27.812;2023-06-10T02:24:12;4.68;;;3.00;;
10114;SDS011;5097;43.260;27.812;2023-06-10T02:26:57;3.60;;;2.88;;
10114;SDS011;5097;43.260;27.812;2023-06-10T02:29:44;6.70;;;3.35;;
10114;SDS011;5097;43.260;27.812;2023-06-10T02:32:28;5.72;;;3.33;;
10114;SDS011;5097;43.260;27.812;2023-06-10T02:35:12;6.97;;;3.22;;
10114;SDS011;5097;43.260;27.812;2023-06-10T02:37:56;3.80;;;3.15;;
10114;SDS011;5097;43.260;27.812;2023-06-10T02:40:40;8.00;;;2.90;;
10114;SDS011;5097;43.260;27.812;2023-06-10T02:43:26;4.00;;;2.90;;
10114;SDS011;5097;43.260;27.812;2023-06-10T02:46:12;4.25;;;3.03;;
10114;SDS011;5097;43.260;27.812;2023-06-10T02:48:58;4.68;;;2.38;;
10114;SDS011;5097;43.260;27.812;2023-06-10T02:51:42;3.30;;;2.03;;
10114;SDS011;5097;43.260;27.812;2023-06-10T02:54:27;4.35;;;2.17;;
10114;SDS011;5097;43.260;27.812;2023-06-10T02:57:11;3.40;;;2.72;;
10114;SDS011;5097;43.260;27.812;2023-06-10T02:59:56;9.30;;;3.40;;
10114;SDS011;5097;43.260;27.812;2023-06-10T03:02:46;2.92;;;2.22;;
10114;SDS011;5097;43.260;27.812;2023-06-10T03:05:34;3.92;;;2.40;;
10114;SDS011;5097;43.260;27.812;2023-06-10T03:08:20;3.67;;;2.00;;
10114;SDS011;5097;43.260;27.812;2023-06-10T03:11:04;2.63;;;2.42;;
10114;SDS011;5097;43.260;27.812;2023-06-10T03:13:50;3.97;;;2.45;;
10114;SDS011;5097;43.260;27.812;2023-06-10T03:16:35;3.15;;;2.33;;
10114;SDS011;5097;43.260;27.812;2023-06-10T03:19:25;5.70;;;2.67;;
10114;SDS011;5097;43.260;27.812;2023-06-10T03:22:11;2.55;;;2.35;;
10114;SDS011;5097;43.260;27.812;2023-06-10T03:25:05;4.57;;;3.58;;
10114;SDS011;5097;43.260;27.812;2023-06-10T03:28:00;5.38;;;4.05;;
10114;SDS011;5097;43.260;27.812;2023-06-10T03:30:45;6.25;;;4.30;;
10114;SDS011;5097;43.260;27.812;2023-06-10T03:33:30;6.25;;;4.45;;
10114;SDS011;5097;43.260;27.812;2023-06-10T03:36:16;8.68;;;5.25;;
10114;SDS011;5097;43.260;27.812;2023-06-10T03:39:02;10.75;;;5.82;;
10114;SDS011;5097;43.260;27.812;2023-06-10T03:41:47;9.32;;;6.47;;
10114;SDS011;5097;43.260;27.812;2023-06-10T03:44:31;11.13;;;7.95;;
10114;SDS011;5097;43.260;27.812;2023-06-10T03:47:16;11.30;;;8.25;;
10114;SDS011;5097;43.260;27.812;2023-06-10T03:50:01;9.70;;;7.65;;
10114;SDS011;5097;43.260;27.812;2023-06-10T03:52:48;12.60;;;7.95;;
10114;SDS011;5097;43.260;27.812;2023-06-10T03:55:34;11.00;;;7.10;;
10114;SDS011;5097;43.260;27.812;2023-06-10T03:58:19;10.82;;;7.43;;
10114;SDS011;5097;43.260;27.812;2023-06-10T04:01:03;7.70;;;6.95;;
10114;SDS011;5097;43.260;27.812;2023-06-10T04:03:49;9.27;;;6.18;;
10114;SDS011;5097;43.260;27.812;2023-06-10T04:06:36;8.05;;;5.93;;
10114;SDS011;5097;43.260;27.812;2023-06-10T04:09:22;6.45;;;5.07;;
10114;SDS011;5097;43.260;27.812;2023-06-10T04:12:06;6.18;;;3.42;;
10114;SDS011;5097;43.260;27.812;2023-06-10T04:14:52;3.92;;;2.92;;
10114;SDS011;5097;43.260;27.812;2023-06-10T04:17:37;11.85;;;4.93;;
10114;SDS011;5097;43.260;27.812;2023-06-10T04:20:21;11.13;;;3.55;;
10114;SDS011;5097;43.260;27.812;2023-06-10T04:23:05;8.50;;;3.35;;
10114;SDS011;5097;43.260;27.812;2023-06-10T04:25:51;5.07;;;3.25;;
10114;SDS011;5097;43.260;27.812;2023-06-10T04:28:35;6.68;;;3.22;;
10114;SDS011;5097;43.260;27.812;2023-06-10T04:31:19;11.20;;;7.63;;
10114;SDS011;5097;43.260;27.812;2023-06-10T04:34:04;20.95;;;11.73;;
10114;SDS011;5097;43.260;27.812;2023-06-10T04:36:47;26.80;;;16.27;;
10114;SDS011;5097;43.260;27.812;2023-06-10T04:39:33;26.60;;;15.00;;
10114;SDS011;5097;43.260;27.812;2023-06-10T04:42:23;24.27;;;15.20;;
10114;SDS011;5097;43.260;27.812;2023-06-10T04:45:08;21.80;;;13.43;;
10114;SDS011;5097;43.260;27.812;2023-06-10T04:47:52;19.27;;;14.93;;
10114;SDS011;5097;43.260;27.812;2023-06-10T04:50:38;21.30;;;15.40;;
10114;SDS011;5097;43.260;27.812;2023-06-10T04:53:22;18.45;;;13.77;;
10114;SDS011;5097;43.260;27.812;2023-06-10T04:56:06;22.40;;;14.23;;
10114;SDS011;5097;43.260;27.812;2023-06-10T04:58:52;19.98;;;14.48;;
10114;SDS011;5097;43.260;27.812;2023-06-10T05:01:36;21.63;;;13.73;;
10114;SDS011;5097;43.260;27.812;2023-06-10T05:04:20;18.58;;;12.80;;
10114;SDS011;5097;43.260;27.812;2023-06-10T05:07:04;10.82;;;6.50;;
10114;SDS011;5097;43.260;27.812;2023-06-10T05:09:49;10.52;;;9.23;;
10114;SDS011;5097;43.260;27.812;2023-06-10T05:12:33;12.75;;;9.88;;
10114;SDS011;5097;43.260;27.812;2023-06-10T05:15:18;9.50;;;3.85;;
10114;SDS011;5097;43.260;27.812;2023-06-10T05:18:02;6.63;;;4.57;;
10114;SDS011;5097;43.260;27.812;2023-06-10T05:20:46;3.72;;;2.70;;
10114;SDS011;5097;43.260;27.812;2023-06-10T05:23:31;6.50;;;3.42;;
10114;SDS011;5097;43.260;27.812;2023-06-10T05:26:15;6.22;;;2.95;;
10114;SDS011;5097;43.260;27.812;2023-06-10T05:28:59;4.55;;;3.40;;
10114;SDS011;5097;43.260;27.812;2023-06-10T05:31:45;3.38;;;2.80;;
10114;SDS011;5097;43.260;27.812;2023-06-10T05:34:29;4.95;;;2.95;;
10114;SDS011;5097;43.260;27.812;2023-06-10T05:37:13;3.38;;;2.70;;
10114;SDS011;5097;43.260;27.812;2023-06-10T05:39:57;5.15;;;3.22;;
10114;SDS011;5097;43.260;27.812;2023-06-10T05:42:41;4.47;;;2.90;;
10114;SDS011;5097;43.260;27.812;2023-06-10T05:45:25;3.25;;;2.70;;
10114;SDS011;5097;43.260;27.812;2023-06-10T05:48:10;2.55;;;2.35;;
10114;SDS011;5097;43.260;27.812;2023-06-10T05:50:54;4.50;;;2.63;;
10114;SDS011;5097;43.260;27.812;2023-06-10T05:53:38;3.72;;;3.10;;
10114;SDS011;5097;43.260;27.812;2023-06-10T05:56:22;10.90;;;8.95;;
10114;SDS011;5097;43.260;27.812;2023-06-10T05:59:08;11.88;;;9.95;;
10114;SDS011;5097;43.260;27.812;2023-06-10T06:01:52;13.13;;;9.38;;
10114;SDS011;5097;43.260;27.812;2023-06-10T06:04:37;18.48;;;9.57;;
10114;SDS011;5097;43.260;27.812;2023-06-10T06:07:21;11.18;;;8.90;;
10114;SDS011;5097;43.260;27.812;2023-06-10T06:10:06;8.93;;;5.75;;
10114;SDS011;5097;43.260;27.812;2023-06-10T06:12:50;12.15;;;7.35;;
10114;SDS011;5097;43.260;27.812;2023-06-10T06:15:34;5.72;;;3.15;;
10114;SDS011;5097;43.260;27.812;2023-06-10T06:18:18;2.67;;;2.15;;
10114;SDS011;5097;43.260;27.812;2023-06-10T06:21:04;3.53;;;2.53;;
10114;SDS011;5097;43.260;27.812;2023-06-10T06:23:48;7.95;;;4.18;;
10114;SDS011;5097;43.260;27.812;2023-06-10T06:26:32;5.97;;;3.65;;
10114;SDS011;5097;43.260;27.812;2023-06-10T06:29:16;4.07;;;2.90;;
10114;SDS011;5097;43.260;27.812;2023-06-10T06:32:00;3.95;;;2.50;;
10114;SDS011;5097;43.260;27.812;2023-06-10T06:34:44;2.78;;;2.58;;
10114;SDS011;5097;43.260;27.812;2023-06-10T06:37:29;2.90;;;2.70;;
10114;SDS011;5097;43.260;27.812;2023-06-10T06:40:28;3.97;;;2.60;;
10114;SDS011;5097;43.260;27.812;2023-06-10T06:43:12;2.63;;;2.45;;
10114;SDS011;5097;43.260;27.812;2023-06-10T06:46:11;3.20;;;2.90;;
10114;SDS011;5097;43.260;27.812;2023-06-10T06:48:59;4.22;;;2.85;;
10114;SDS011;5097;43.260;27.812;2023-06-10T06:51:43;4.85;;;2.78;;
10114;SDS011;5097;43.260;27.812;2023-06-10T06:54:28;6.13;;;2.90;;
10114;SDS011;5097;43.260;27.812;2023-06-10T06:57:12;3.08;;;2.20;;
10114;SDS011;5097;43.260;27.812;2023-06-10T06:59:56;4.15;;;2.47;;
10114;SDS011;5097;43.260;27.812;2023-06-10T07:02:40;2.80;;;2.60;;
10114;SDS011;5097;43.260;27.812;2023-06-10T07:05:24;3.50;;;2.28;;
10114;SDS011;5097;43.260;27.812;2023-06-10T07:08:09;2.85;;;2.60;;
10114;SDS011;5097;43.260;27.812;2023-06-10T07:10:55;3.92;;;2.50;;
10114;SDS011;5097;43.260;27.812;2023-06-10T07:13:40;2.58;;;2.15;;
10114;SDS011;5097;43.260;27.812;2023-06-10T07:16:24;4.43;;;2.70;;
10114;SDS011;5097;43.260;27.812;2023-06-10T07:19:08;3.00;;;2.70;;
10114;SDS011;5097;43.260;27.812;2023-06-10T07:21:52;6.90;;;2.80;;
10114;SDS011;5097;43.260;27.812;2023-06-10T07:24:36;2.53;;;2.28;;
10114;SDS011;5097;43.260;27.812;2023-06-10T07:27:21;4.97;;;2.90;;
10114;SDS011;5097;43.260;27.812;2023-06-10T07:30:06;6.47;;;3.17;;
10114;SDS011;5097;43.260;27.812;2023-06-10T07:32:51;7.65;;;2.60;;
10114;SDS011;5097;43.260;27.812;2023-06-10T07:35:35;5.45;;;2.78;;
10114;SDS011;5097;43.260;27.812;2023-06-10T07:38:19;3.13;;;2.83;;
10114;SDS011;5097;43.260;27.812;2023-06-10T07:41:03;3.60;;;2.80;;
10114;SDS011;5097;43.260;27.812;2023-06-10T07:43:49;3.47;;;2.70;;
10114;SDS011;5097;43.260;27.812;2023-06-10T07:46:36;3.08;;;2.83;;
10114;SDS011;5097;43.260;27.812;2023-06-10T07:49:21;4.03;;;2.60;;
10114;SDS011;5097;43.260;27.812;2023-06-10T07:52:05;2.30;;;2.17;;
10114;SDS011;5097;43.260;27.812;2023-06-10T07:54:50;4.63;;;2.85;;
10114;SDS011;5097;43.260;27.812;2023-06-10T07:57:34;3.33;;;2.78;;
10114;SDS011;5097;43.260;27.812;2023-06-10T08:00:22;6.50;;;3.03;;
10114;SDS011;5097;43.260;27.812;2023-06-10T08:03:07;2.80;;;2.50;;
10114;SDS011;5097;43.260;27.812;2023-06-10T08:05:51;6.90;;;2.50;;
10114;SDS011;5097;43.260;27.812;2023-06-10T08:08:35;5.50;;;2.67;;
10114;SDS011;5097;43.260;27.812;2023-06-10T08:11:24;4.30;;;2.58;;
10114;SDS011;5097;43.260;27.812;2023-06-10T08:14:10;5.70;;;2.72;;
10114;SDS011;5097;43.260;27.812;2023-06-10T08:16:55;2.42;;;2.22;;
10114;SDS011;5097;43.260;27.812;2023-06-10T08:19:40;5.28;;;2.80;;
10114;SDS011;5097;43.260;27.812;2023-06-10T08:22:23;6.03;;;3.67;;
10114;SDS011;5097;43.260;27.812;2023-06-10T08:25:08;2.95;;;2.72;;
10114;SDS011;5097;43.260;27.812;2023-06-10T08:27:52;4.22;;;2.83;;
10114;SDS011;5097;43.260;27.812;2023-06-10T08:30:38;3.78;;;2.63;;
10114;SDS011;5097;43.260;27.812;2023-06-10T08:33:24;3.95;;;2.78;;
10114;SDS011;5097;43.260;27.812;2023-06-10T08:36:08;3.55;;;3.25;;
10114;SDS011;5097;43.260;27.812;2023-06-10T08:38:52;6.25;;;2.70;;
10114;SDS011;5097;43.260;27.812;2023-06-10T08:41:37;3.17;;;2.85;;
10114;SDS011;5097;43.260;27.812;2023-06-10T08:44:27;3.97;;;2.70;;
10114;SDS011;5097;43.260;27.812;2023-06-10T08:47:13;3.70;;;2.78;;
10114;SDS011;5097;43.260;27.812;2023-06-10T08:50:00;9.93;;;3.50;;
10114;SDS011;5097;43.260;27.812;2023-06-10T08:52:48;3.50;;;2.55;;
10114;SDS011;5097;43.260;27.812;2023-06-10T08:55:37;4.78;;;2.72;;
10114;SDS011;5097;43.260;27.812;2023-06-10T08:58:22;3.65;;;3.35;;
10114;SDS011;5097;43.260;27.812;2023-06-10T09:01:06;4.45;;;3.63;;
10114;SDS011;5097;43.260;27.812;2023-06-10T09:03:50;5.00;;;2.78;;
10114;SDS011;5097;43.260;27.812;2023-06-10T09:06:36;5.32;;;2.70;;
10114;SDS011;5097;43.260;27.812;2023-06-10T09:09:21;9.50;;;2.88;;
10114;SDS011;5097;43.260;27.812;2023-06-10T09:12:06;3.00;;;2.70;;
10114;SDS011;5097;43.260;27.812;2023-06-10T09:14:51;6.47;;;2.90;;
10114;SDS011;5097;43.260;27.812;2023-06-10T09:17:35;4.00;;;2.60;;
10114;SDS011;5097;43.260;27.812;2023-06-10T09:20:20;3.05;;;2.75;;
10114;SDS011;5097;43.260;27.812;2023-06-10T09:23:05;6.32;;;2.90;;
10114;SDS011;5097;43.260;27.812;2023-06-10T09:25:55;4.00;;;3.17;;
10114;SDS011;5097;43.260;27.812;2023-06-10T09:28:41;4.78;;;2.95;;
10114;SDS011;5097;43.260;27.812;2023-06-10T09:31:26;5.90;;;2.70;;
10114;SDS011;5097;43.260;27.812;2023-06-10T09:34:10;5.93;;;2.80;;
10114;SDS011;5097;43.260;27.812;2023-06-10T09:36:55;5.28;;;3.03;;
10114;SDS011;5097;43.260;27.812;2023-06-10T09:39:40;4.45;;;2.63;;
10114;SDS011;5097;43.260;27.812;2023-06-10T09:42:24;4.68;;;2.83;;
10114;SDS011;5097;43.260;27.812;2023-06-10T09:45:09;4.65;;;2.90;;
10114;SDS011;5097;43.260;27.812;2023-06-10T09:47:53;4.45;;;2.90;;
10114;SDS011;5097;43.260;27.812;2023-06-10T09:50:41;3.72;;;3.42;;
10114;SDS011;5097;43.260;27.812;2023-06-10T09:53:25;4.95;;;3.83;;
10114;SDS011;5097;43.260;27.812;2023-06-10T09:56:11;3.70;;;3.03;;
10114;SDS011;5097;43.260;27.812;2023-06-10T09:58:55;5.45;;;3.63;;
10114;SDS011;5097;43.260;27.812;2023-06-10T10:01:39;8.05;;;3.33;;
10114;SDS011;5097;43.260;27.812;2023-06-10T10:04:23;4.65;;;3.05;;
10114;SDS011;5097;43.260;27.812;2023-06-10T10:07:08;7.22;;;2.92;;
10114;SDS011;5097;43.260;27.812;2023-06-10T10:09:52;4.25;;;3.30;;
10114;SDS011;5097;43.260;27.812;2023-06-10T10:12:39;2.63;;;2.53;;
10114;SDS011;5097;43.260;27.812;2023-06-10T10:15:24;4.55;;;3.00;;
10114;SDS011;5097;43.260;27.812;2023-06-10T10:18:13;3.95;;;2.92;;
10114;SDS011;5097;43.260;27.812;2023-06-10T10:21:01;5.50;;;3.53;;
10114;SDS011;5097;43.260;27.812;2023-06-10T10:23:52;5.32;;;3.30;;
10114;SDS011;5097;43.260;27.812;2023-06-10T10:26:41;5.57;;;2.72;;
10114;SDS011;5097;43.260;27.812;2023-06-10T10:29:28;3.70;;;2.92;;
10114;SDS011;5097;43.260;27.812;2023-06-10T10:32:14;4.43;;;2.88;;
10114;SDS011;5097;43.260;27.812;2023-06-10T10:35:02;3.10;;;2.90;;
10114;SDS011;5097;43.260;27.812;2023-06-10T10:37:52;3.67;;;2.88;;
10114;SDS011;5097;43.260;27.812;2023-06-10T10:40:36;3.88;;;3.30;;
10114;SDS011;5097;43.260;27.812;2023-06-10T10:43:21;6.28;;;2.67;;
10114;SDS011;5097;43.260;27.812;2023-06-10T10:46:08;5.63;;;2.53;;
10114;SDS011;5097;43.260;27.812;2023-06-10T10:48:55;4.32;;;3.05;;
10114;SDS011;5097;43.260;27.812;2023-06-10T10:54:43;7.50;;;3.00;;
10114;SDS011;5097;43.260;27.812;2023-06-10T10:57:29;4.47;;;3.10;;
10114;SDS011;5097;43.260;27.812;2023-06-10T11:00:13;5.68;;;3.30;;
10114;SDS011;5097;43.260;27.812;2023-06-10T11:03:14;4.38;;;3.30;;
10114;SDS011;5097;43.260;27.812;2023-06-10T11:06:00;5.22;;;3.75;;
10114;SDS011;5097;43.260;27.812;2023-06-10T11:08:49;3.97;;;3.53;;
10114;SDS011;5097;43.260;27.812;2023-06-10T11:11:33;2.90;;;2.70;;
10114;SDS011;5097;43.260;27.812;2023-06-10T11:14:25;5.07;;;3.05;;
10114;SDS011;5097;43.260;27.812;2023-06-10T11:17:18;4.65;;;3.33;;
10114;SDS011;5097;43.260;27.812;2023-06-10T11:20:04;3.55;;;3.25;;
10114;SDS011;5097;43.260;27.812;2023-06-10T11:22:58;4.05;;;3.30;;
10114;SDS011;5097;43.260;27.812;2023-06-10T11:25:42;3.50;;;3.20;;
10114;SDS011;5097;43.260;27.812;2023-06-10T11:28:27;5.20;;;3.58;;
10114;SDS011;5097;43.260;27.812;2023-06-10T11:31:13;7.05;;;3.47;;
10114;SDS011;5097;43.260;27.812;2023-06-10T11:34:04;5.25;;;3.00;;
10114;SDS011;5097;43.260;27.812;2023-06-10T11:36:50;4.28;;;3.03;;
10114;SDS011;5097;43.260;27.812;2023-06-10T11:39:35;5.75;;;3.50;;
10114;SDS011;5097;43.260;27.812;2023-06-10T11:42:19;4.45;;;3.13;;
10114;SDS011;5097;43.260;27.812;2023-06-10T11:45:04;5.78;;;3.10;;
10114;SDS011;5097;43.260;27.812;2023-06-10T11:47:57;5.85;;;3.65;;
10114;SDS011;5097;43.260;27.812;2023-06-10T11:50:42;3.75;;;3.30;;
10114;SDS011;5097;43.260;27.812;2023-06-10T11:53:27;7.80;;;3.40;;
10114;SDS011;5097;43.260;27.812;2023-06-10T11:56:11;3.45;;;3.10;;
10114;SDS011;5097;43.260;27.812;2023-06-10T11:58:56;6.90;;;3.20;;
10114;SDS011;5097;43.260;27.812;2023-06-10T12:01:42;5.32;;;3.20;;
10114;SDS011;5097;43.260;27.812;2023-06-10T12:04:27;5.70;;;3.15;;
10114;SDS011;5097;43.260;27.812;2023-06-10T12:07:16;3.55;;;3.25;;
10114;SDS011;5097;43.260;27.812;2023-06-10T12:10:03;3.65;;;3.25;;
10114;SDS011;5097;43.260;27.812;2023-06-10T12:13:07;4.00;;;3.55;;
10114;SDS011;5097;43.260;27.812;2023-06-10T12:15:52;11.00;;;3.75;;
10114;SDS011;5097;43.260;27.812;2023-06-10T12:18:37;5.13;;;3.70;;
10114;SDS011;5097;43.260;27.812;2023-06-10T12:21:23;6.03;;;3.40;;
10114;SDS011;5097;43.260;27.812;2023-06-10T12:24:08;5.55;;;3.70;;
10114;SDS011;5097;43.260;27.812;2023-06-10T12:26:55;6.20;;;3.25;;
10114;SDS011;5097;43.260;27.812;2023-06-10T12:29:39;4.95;;;3.58;;
10114;SDS011;5097;43.260;27.812;2023-06-10T12:32:39;5.47;;;3.40;;
10114;SDS011;5097;43.260;27.812;2023-06-10T12:35:25;3.60;;;3.30;;
10114;SDS011;5097;43.260;27.812;2023-06-10T12:38:10;5.55;;;3.40;;
10114;SDS011;5097;43.260;27.812;2023-06-10T12:41:00;3.65;;;3.20;;
10114;SDS011;5097;43.260;27.812;2023-06-10T12:43:47;3.95;;;3.10;;
10114;SDS011;5097;43.260;27.812;2023-06-10T12:46:35;4.38;;;3.97;;
10114;SDS011;5097;43.260;27.812;2023-06-10T12:49:20;5.97;;;3.63;;
10114;SDS011;5097;43.260;27.812;2023-06-10T12:52:04;5.22;;;3.38;;
10114;SDS011;5097;43.260;27.812;2023-06-10T12:54:49;6.85;;;3.83;;
10114;SDS011;5097;43.260;27.812;2023-06-10T12:57:33;6.90;;;3.78;;
10114;SDS011;5097;43.260;27.812;2023-06-10T13:00:19;4.57;;;3.63;;
10114;SDS011;5097;43.260;27.812;2023-06-10T13:03:04;4.82;;;3.30;;
10114;SDS011;5097;43.260;27.812;2023-06-10T13:05:49;6.25;;;4.05;;
10114;SDS011;5097;43.260;27.812;2023-06-10T13:08:33;4.53;;;3.58;;
10114;SDS011;5097;43.260;27.812;2023-06-10T13:11:17;6.78;;;3.78;;
10114;SDS011;5097;43.260;27.812;2023-06-10T13:14:02;4.45;;;3.70;;
10114;SDS011;5097;43.260;27.812;2023-06-10T13:16:48;5.72;;;3.90;;
10114;SDS011;5097;43.260;27.812;2023-06-10T13:19:32;8.85;;;4.28;;
10114;SDS011;5097;43.260;27.812;2023-06-10T13:22:16;4.80;;;3.78;;
10114;SDS011;5097;43.260;27.812;2023-06-10T13:25:02;7.18;;;3.75;;
10114;SDS011;5097;43.260;27.812;2023-06-10T13:27:47;4.45;;;3.67;;
10114;SDS011;5097;43.260;27.812;2023-06-10T13:30:31;6.55;;;3.58;;
10114;SDS011;5097;43.260;27.812;2023-06-10T13:33:17;6.00;;;3.67;;
10114;SDS011;5097;43.260;27.812;2023-06-10T13:36:01;8.20;;;3.83;;
10114;SDS011;5097;43.260;27.812;2023-06-10T13:38:45;4.97;;;3.65;;
10114;SDS011;5097;43.260;27.812;2023-06-10T13:41:29;5.43;;;3.60;;
10114;SDS011;5097;43.260;27.812;2023-06-10T13:44:13;6.05;;;3.33;;
10114;SDS011;5097;43.260;27.812;2023-06-10T13:46:57;3.17;;;2.97;;
10114;SDS011;5097;43.260;27.812;2023-06-10T13:49:42;4.20;;;3.70;;
10114;SDS011;5097;43.260;27.812;2023-06-10T13:52:26;6.28;;;3.58;;
10114;SDS011;5097;43.260;27.812;2023-06-10T13:55:10;7.72;;;3.88;;
10114;SDS011;5097;43.260;27.812;2023-06-10T13:57:55;5.63;;;4.13;;
10114;SDS011;5097;43.260;27.812;2023-06-10T14:00:39;4.38;;;3.40;;
10114;SDS011;5097;43.260;27.812;2023-06-10T14:03:23;5.95;;;3.20;;
10114;SDS011;5097;43.260;27.812;2023-06-10T14:06:09;8.85;;;3.60;;
10114;SDS011;5097;43.260;27.812;2023-06-10T14:08:55;3.78;;;2.92;;
10114;SDS011;5097;43.260;27.812;2023-06-10T14:11:39;4.95;;;3.20;;
10114;SDS011;5097;43.260;27.812;2023-06-10T14:14:24;6.68;;;3.53;;
10114;SDS011;5097;43.260;27.812;2023-06-10T14:17:08;6.00;;;3.65;;
10114;SDS011;5097;43.260;27.812;2023-06-10T14:19:52;3.80;;;3.50;;
10114;SDS011;5097;43.260;27.812;2023-06-10T14:22:37;3.90;;;3.15;;
10114;SDS011;5097;43.260;27.812;2023-06-10T14:25:21;4.07;;;3.58;;
10114;SDS011;5097;43.260;27.812;2023-06-10T14:28:05;8.48;;;3.40;;
10114;SDS011;5097;43.260;27.812;2023-06-10T14:30:50;5.78;;;3.47;;
10114;SDS011;5097;43.260;27.812;2023-06-10T14:33:34;8.52;;;3.50;;
10114;SDS011;5097;43.260;27.812;2023-06-10T14:36:18;4.65;;;3.67;;
10114;SDS011;5097;43.260;27.812;2023-06-10T14:39:04;3.40;;;3.10;;
10114;SDS011;5097;43.260;27.812;2023-06-10T14:41:48;4.68;;;3.22;;
10114;SDS011;5097;43.260;27.812;2023-06-10T14:44:32;7.10;;;3.97;;
10114;SDS011;5097;43.260;27.812;2023-06-10T14:47:16;5.30;;;3.58;;
10114;SDS011;5097;43.260;27.812;2023-06-10T14:50:00;4.10;;;3.70;;
10114;SDS011;5097;43.260;27.812;2023-06-10T14:52:45;8.95;;;3.45;;
10114;SDS011;5097;43.260;27.812;2023-06-10T14:55:30;5.88;;;3.30;;
10114;SDS011;5097;43.260;27.812;2023-06-10T14:58:14;4.43;;;3.25;;
10114;SDS011;5097;43.260;27.812;2023-06-10T15:00:58;4.07;;;3.42;;
10114;SDS011;5097;43.260;27.812;2023-06-10T15:03:42;9.23;;;3.63;;
10114;SDS011;5097;43.260;27.812;2023-06-10T15:06:26;6.82;;;3.33;;
10114;SDS011;5097;43.260;27.812;2023-06-10T15:09:10;7.45;;;3.97;;
10114;SDS011;5097;43.260;27.812;2023-06-10T15:11:55;4.38;;;3.55;;
10114;SDS011;5097;43.260;27.812;2023-06-10T15:14:39;7.78;;;3.28;;
10114;SDS011;5097;43.260;27.812;2023-06-10T15:17:23;8.13;;;3.38;;
10114;SDS011;5097;43.260;27.812;2023-06-10T15:20:08;6.10;;;3.70;;
10114;SDS011;5097;43.260;27.812;2023-06-10T15:22:52;6.43;;;3.53;;
10114;SDS011;5097;43.260;27.812;2023-06-10T15:25:37;4.53;;;3.50;;
10114;SDS011;5097;43.260;27.812;2023-06-10T15:28:24;8.75;;;3.78;;
10114;SDS011;5097;43.260;27.812;2023-06-10T15:31:09;6.47;;;3.47;;
10114;SDS011;5097;43.260;27.812;2023-06-10T15:33:54;5.82;;;3.47;;
10114;SDS011;5097;43.260;27.812;2023-06-10T15:36:38;5.50;;;3.40;;
10114;SDS011;5097;43.260;27.812;2023-06-10T15:39:21;3.28;;;2.80;;
10114;SDS011;5097;43.260;27.812;2023-06-10T15:42:07;5.10;;;3.25;;
10114;SDS011;5097;43.260;27.812;2023-06-10T15:44:52;10.27;;;4.10;;
10114;SDS011;5097;43.260;27.812;2023-06-10T15:47:36;5.80;;;3.78;;
10114;SDS011;5097;43.260;27.812;2023-06-10T15:50:22;5.70;;;3.85;;
10114;SDS011;5097;43.260;27.812;2023-06-10T15:53:07;5.57;;;3.28;;
10114;SDS011;5097;43.260;27.812;2023-06-10T15:55:50;7.50;;;3.50;;
10114;SDS011;5097;43.260;27.812;2023-06-10T15:58:34;4.97;;;3.42;;
10114;SDS011;5097;43.260;27.812;2023-06-10T16:01:20;4.85;;;2.83;;
10114;SDS011;5097;43.260;27.812;2023-06-10T16:04:04;4.30;;;3.42;;
10114;SDS011;5097;43.260;27.812;2023-06-10T16:06:48;3.28;;;2.92;;
10114;SDS011;5097;43.260;27.812;2023-06-10T16:09:32;3.15;;;2.95;;
10114;SDS011;5097;43.260;27.812;2023-06-10T16:12:17;4.28;;;2.72;;
10114;SDS011;5097;43.260;27.812;2023-06-10T16:15:00;9.88;;;3.60;;
10114;SDS011;5097;43.260;27.812;2023-06-10T16:17:48;4.70;;;3.38;;
10114;SDS011;5097;43.260;27.812;2023-06-10T16:20:32;5.45;;;2.83;;
10114;SDS011;5097;43.260;27.812;2023-06-10T16:23:17;3.80;;;3.00;;
10114;SDS011;5097;43.260;27.812;2023-06-10T16:26:01;4.47;;;3.10;;
10114;SDS011;5097;43.260;27.812;2023-06-10T16:28:45;3.53;;;3.08;;
10114;SDS011;5097;43.260;27.812;2023-06-10T16:31:29;5.00;;;2.80;;
10114;SDS011;5097;43.260;27.812;2023-06-10T16:34:15;5.50;;;3.40;;
10114;SDS011;5097;43.260;27.812;2023-06-10T16:36:59;12.75;;;7.55;;